sensor_id;sensor_type;location;lat;lon;timestamp;pressure;altitude;pressure_sealevel;temperature;humidity
71105;BME280;58760;48.716;8.962;2024-03-29T00:01:17;94843.00;;;5.88;100.00
71105;BME280;58760;48.716;8.962;2024-03-29T00:03:43;94834.31;;;6.08;100.00
71105;BME280;58760;48.716;8.962;2024-03-29T00:06:10;94814.81;;;6.03;100.00
71105;BME280;58760;48.716;8.962;2024-03-29T00:08:36;94822.13;;;5.86;100.00
71105;BME280;58760;48.716;8.962;2024-03-29T00:11:02;94810.59;;;5.87;100.00
71105;BME280;58760;48.716;8.962;2024-03-29T00:13:28;94815.75;;;5.80;100.00
71105;BME280;58760;48.716;8.962;2024-03-29T00:15:53;94812.25;;;5.73;100.00
71105;BME280;58760;48.716;8.962;2024-03-29T00:18:19;94810.38;;;5.53;100.00
71105;BME280;58760;48.716;8.962;2024-03-29T00:20:45;94806.41;;;5.27;100.00
71105;BME280;58760;48.716;8.962;2024-03-29T00:23:11;94802.38;;;5.10;100.00
71105;BME280;58760;48.716;8.962;2024-03-29T00:25:37;94807.34;;;5.20;100.00
71105;BME280;58760;48.716;8.962;2024-03-29T00:28:05;94792.84;;;5.09;100.00
71105;BME280;58760;48.716;8.962;2024-03-29T00:30:32;94788.94;;;5.05;100.00
71105;BME280;58760;48.716;8.962;2024-03-29T00:32:57;94790.47;;;4.85;100.00
71105;BME280;58760;48.716;8.962;2024-03-29T00:35:24;94773.44;;;4.96;100.00
71105;BME280;58760;48.716;8.962;2024-03-29T00:37:51;94748.31;;;5.22;100.00
71105;BME280;58760;48.716;8.962;2024-03-29T00:40:16;94749.59;;;5.26;100.00
71105;BME280;58760;48.716;8.962;2024-03-29T00:42:44;94733.91;;;5.54;100.00
71105;BME280;58760;48.716;8.962;2024-03-29T00:45:10;94721.44;;;5.42;100.00
71105;BME280;58760;48.716;8.962;2024-03-29T00:47:36;94744.50;;;5.40;100.00
71105;BME280;58760;48.716;8.962;2024-03-29T00:50:02;94723.84;;;5.58;100.00
71105;BME280;58760;48.716;8.962;2024-03-29T00:52:30;94755.66;;;5.63;100.00
71105;BME280;58760;48.716;8.962;2024-03-29T00:54:57;94754.19;;;5.75;100.00
71105;BME280;58760;48.716;8.962;2024-03-29T00:57:22;94746.16;;;5.83;100.00
71105;BME280;58760;48.716;8.962;2024-03-29T00:59:48;94750.75;;;5.60;100.00
71105;BME280;58760;48.716;8.962;2024-03-29T01:02:14;94753.66;;;5.65;100.00
71105;BME280;58760;48.716;8.962;2024-03-29T01:04:40;94768.56;;;5.58;100.00
71105;BME280;58760;48.716;8.962;2024-03-29T01:07:06;94766.06;;;5.35;100.00
71105;BME280;58760;48.716;8.962;2024-03-29T01:09:32;94755.88;;;5.47;100.00
71105;BME280;58760;48.716;8.962;2024-03-29T01:11:58;94745.94;;;5.27;100.00
71105;BME280;58760;48.716;8.962;2024-03-29T01:14:23;94746.97;;;5.12;100.00
71105;BME280;58760;48.716;8.962;2024-03-29T01:16:49;94741.91;;;4.96;100.00
71105;BME280;58760;48.716;8.962;2024-03-29T01:19:15;94743.63;;;5.03;100.00
71105;BME280;58760;48.716;8.962;2024-03-29T01:21:40;94742.00;;;5.02;100.00
71105;BME280;58760;48.716;8.962;2024-03-29T01:24:06;94744.63;;;5.02;100.00
71105;BME280;58760;48.716;8.962;2024-03-29T01:26:33;94747.91;;;4.90;100.00
71105;BME280;58760;48.716;8.962;2024-03-29T01:28:59;94732.22;;;4.82;100.00
71105;BME280;58760;48.716;8.962;2024-03-29T01:31:24;94728.25;;;5.00;100.00
71105;BME280;58760;48.716;8.962;2024-03-29T01:33:50;94717.56;;;4.87;100.00
71105;BME280;58760;48.716;8.962;2024-03-29T01:36:16;94719.81;;;4.90;100.00
71105;BME280;58760;48.716;8.962;2024-03-29T01:38:41;94723.28;;;4.91;100.00
71105;BME280;58760;48.716;8.962;2024-03-29T01:41:08;94717.00;;;4.92;100.00
71105;BME280;58760;48.716;8.962;2024-03-29T01:43:33;94717.00;;;5.06;100.00
71105;BME280;58760;48.716;8.962;2024-03-29T01:45:59;94725.56;;;5.15;100.00
71105;BME280;58760;48.716;8.962;2024-03-29T01:48:26;94726.31;;;4.94;100.00
71105;BME280;58760;48.716;8.962;2024-03-29T01:50:55;94734.31;;;4.86;100.00
71105;BME280;58760;48.716;8.962;2024-03-29T01:53:23;94732.03;;;5.12;100.00
71105;BME280;58760;48.716;8.962;2024-03-29T01:55:50;94742.53;;;5.12;100.00
71105;BME280;58760;48.716;8.962;2024-03-29T01:58:18;94738.31;;;4.97;100.00
71105;BME280;58760;48.716;8.962;2024-03-29T02:00:52;94743.28;;;5.06;100.00
71105;BME280;58760;48.716;8.962;2024-03-29T02:03:21;94725.78;;;5.13;100.00
71105;BME280;58760;48.716;8.962;2024-03-29T02:05:47;94734.16;;;5.23;100.00
71105;BME280;58760;48.716;8.962;2024-03-29T02:08:14;94725.41;;;5.16;100.00
71105;BME280;58760;48.716;8.962;2024-03-29T02:10:39;94734.28;;;5.15;100.00
71105;BME280;58760;48.716;8.962;2024-03-29T02:13:05;94736.91;;;5.15;100.00
71105;BME280;58760;48.716;8.962;2024-03-29T02:15:31;94742.00;;;5.02;100.00
71105;BME280;58760;48.716;8.962;2024-03-29T02:17:57;94744.38;;;4.97;100.00
71105;BME280;58760;48.716;8.962;2024-03-29T02:20:25;94740.84;;;4.90;100.00
71105;BME280;58760;48.716;8.962;2024-03-29T02:22:58;94729.75;;;4.95;100.00
71105;BME280;58760;48.716;8.962;2024-03-29T02:25:25;94729.97;;;4.93;100.00
71105;BME280;58760;48.716;8.962;2024-03-29T02:27:51;94731.53;;;4.88;100.00
71105;BME280;58760;48.716;8.962;2024-03-29T02:30:18;94728.88;;;5.02;100.00
71105;BME280;58760;48.716;8.962;2024-03-29T02:32:43;94734.38;;;5.07;100.00
71105;BME280;58760;48.716;8.962;2024-03-29T02:35:09;94733.94;;;4.89;100.00
71105;BME280;58760;48.716;8.962;2024-03-29T02:37:36;94722.97;;;5.00;100.00
71105;BME280;58760;48.716;8.962;2024-03-29T02:40:03;94716.00;;;4.93;100.00
71105;BME280;58760;48.716;8.962;2024-03-29T02:42:28;94715.84;;;4.80;100.00
71105;BME280;58760;48.716;8.962;2024-03-29T02:44:54;94714.66;;;4.82;100.00
71105;BME280;58760;48.716;8.962;2024-03-29T02:47:22;94715.91;;;4.71;100.00
71105;BME280;58760;48.716;8.962;2024-03-29T02:49:48;94727.06;;;4.88;100.00
71105;BME280;58760;48.716;8.962;2024-03-29T02:52:13;94742.19;;;4.86;100.00
71105;BME280;58760;48.716;8.962;2024-03-29T02:54:43;94746.19;;;4.97;100.00
71105;BME280;58760;48.716;8.962;2024-03-29T02:57:09;94740.88;;;5.26;100.00
71105;BME280;58760;48.716;8.962;2024-03-29T02:59:34;94740.81;;;5.05;100.00
71105;BME280;58760;48.716;8.962;2024-03-29T03:02:01;94742.91;;;4.95;100.00
71105;BME280;58760;48.716;8.962;2024-03-29T03:04:27;94736.22;;;4.92;100.00
71105;BME280;58760;48.716;8.962;2024-03-29T03:06:52;94741.09;;;4.95;100.00
71105;BME280;58760;48.716;8.962;2024-03-29T03:09:18;94748.53;;;5.06;100.00
71105;BME280;58760;48.716;8.962;2024-03-29T03:12:02;94733.38;;;5.23;100.00
71105;BME280;58760;48.716;8.962;2024-03-29T03:14:28;94736.16;;;5.21;100.00
71105;BME280;58760;48.716;8.962;2024-03-29T03:16:53;94742.72;;;5.11;100.00
71105;BME280;58760;48.716;8.962;2024-03-29T03:19:19;94760.84;;;5.56;100.00
71105;BME280;58760;48.716;8.962;2024-03-29T03:21:45;94770.50;;;5.35;100.00
71105;BME280;58760;48.716;8.962;2024-03-29T03:24:11;94772.88;;;5.30;100.00
71105;BME280;58760;48.716;8.962;2024-03-29T03:26:43;94786.53;;;5.54;100.00
71105;BME280;58760;48.716;8.962;2024-03-29T03:29:08;94799.75;;;5.61;100.00
71105;BME280;58760;48.716;8.962;2024-03-29T03:31:38;94806.22;;;5.58;100.00
71105;BME280;58760;48.716;8.962;2024-03-29T03:34:04;94810.38;;;5.53;100.00
71105;BME280;58760;48.716;8.962;2024-03-29T03:36:29;94787.97;;;5.57;100.00
71105;BME280;58760;48.716;8.962;2024-03-29T03:38:55;94772.81;;;5.59;100.00
71105;BME280;58760;48.716;8.962;2024-03-29T03:41:21;94809.97;;;5.70;100.00
71105;BME280;58760;48.716;8.962;2024-03-29T03:43:46;94785.84;;;5.67;100.00
71105;BME280;58760;48.716;8.962;2024-03-29T03:46:12;94740.88;;;5.83;100.00
71105;BME280;58760;48.716;8.962;2024-03-29T03:48:38;94740.88;;;5.83;100.00
71105;BME280;58760;48.716;8.962;2024-03-29T03:51:04;94712.69;;;5.92;100.00
71105;BME280;58760;48.716;8.962;2024-03-29T03:53:30;94710.00;;;5.70;100.00
71105;BME280;58760;48.716;8.962;2024-03-29T03:55:55;94703.84;;;5.63;100.00
71105;BME280;58760;48.716;8.962;2024-03-29T03:58:21;94702.25;;;5.62;100.00
71105;BME280;58760;48.716;8.962;2024-03-29T04:00:46;94689.44;;;5.59;100.00
71105;BME280;58760;48.716;8.962;2024-03-29T04:03:12;94672.28;;;5.63;100.00
71105;BME280;58760;48.716;8.962;2024-03-29T04:05:38;94666.09;;;5.71;100.00
71105;BME280;58760;48.716;8.962;2024-03-29T04:08:04;94654.56;;;5.93;100.00
71105;BME280;58760;48.716;8.962;2024-03-29T04:10:30;94644.84;;;5.94;100.00
71105;BME280;58760;48.716;8.962;2024-03-29T04:12:56;94662.06;;;5.96;100.00
71105;BME280;58760;48.716;8.962;2024-03-29T04:15:21;94659.75;;;6.08;100.00
71105;BME280;58760;48.716;8.962;2024-03-29T04:17:47;94667.16;;;6.25;100.00
71105;BME280;58760;48.716;8.962;2024-03-29T04:20:13;94670.66;;;6.32;100.00
71105;BME280;58760;48.716;8.962;2024-03-29T04:22:39;94689.78;;;6.48;100.00
71105;BME280;58760;48.716;8.962;2024-03-29T04:25:04;94722.81;;;6.44;100.00
71105;BME280;58760;48.716;8.962;2024-03-29T04:27:30;94744.63;;;6.38;100.00
71105;BME280;58760;48.716;8.962;2024-03-29T04:29:55;94770.69;;;6.26;100.00
71105;BME280;58760;48.716;8.962;2024-03-29T04:32:21;94802.09;;;6.06;100.00
71105;BME280;58760;48.716;8.962;2024-03-29T04:34:48;94747.16;;;6.24;100.00
71105;BME280;58760;48.716;8.962;2024-03-29T04:37:14;94797.19;;;6.24;100.00
71105;BME280;58760;48.716;8.962;2024-03-29T04:39:43;94754.47;;;6.01;100.00
71105;BME280;58760;48.716;8.962;2024-03-29T04:42:09;94721.66;;;6.53;100.00
71105;BME280;58760;48.716;8.962;2024-03-29T04:44:34;94736.09;;;6.63;100.00
71105;BME280;58760;48.716;8.962;2024-03-29T04:47:00;94695.25;;;6.46;100.00
71105;BME280;58760;48.716;8.962;2024-03-29T04:49:27;94683.13;;;6.52;100.00
71105;BME280;58760;48.716;8.962;2024-03-29T04:52:07;94670.47;;;6.68;100.00
71105;BME280;58760;48.716;8.962;2024-03-29T04:54:34;94685.72;;;6.45;100.00
71105;BME280;58760;48.716;8.962;2024-03-29T04:57:00;94686.47;;;6.32;100.00
71105;BME280;58760;48.716;8.962;2024-03-29T04:59:31;94707.31;;;6.34;100.00
71105;BME280;58760;48.716;8.962;2024-03-29T05:01:58;94722.81;;;6.44;100.00
71105;BME280;58760;48.716;8.962;2024-03-29T05:04:24;94700.75;;;6.51;100.00
71105;BME280;58760;48.716;8.962;2024-03-29T05:06:57;94713.34;;;6.28;100.00
71105;BME280;58760;48.716;8.962;2024-03-29T05:09:25;94714.06;;;6.15;100.00
71105;BME280;58760;48.716;8.962;2024-03-29T05:11:52;94730.41;;;6.04;100.00
71105;BME280;58760;48.716;8.962;2024-03-29T05:14:20;94717.91;;;6.13;100.00
71105;BME280;58760;48.716;8.962;2024-03-29T05:16:46;94717.81;;;6.27;100.00
71105;BME280;58760;48.716;8.962;2024-03-29T05:19:14;94739.25;;;6.24;100.00
71105;BME280;58760;48.716;8.962;2024-03-29T05:21:43;94736.09;;;6.08;100.00
71105;BME280;58760;48.716;8.962;2024-03-29T05:24:09;94718.28;;;6.10;100.00
71105;BME280;58760;48.716;8.962;2024-03-29T05:26:34;94734.38;;;6.21;100.00
71105;BME280;58760;48.716;8.962;2024-03-29T05:29:00;94721.59;;;6.18;100.00
71105;BME280;58760;48.716;8.962;2024-03-29T05:31:26;94731.38;;;6.03;100.00
71105;BME280;58760;48.716;8.962;2024-03-29T05:33:54;94725.41;;;6.16;100.00
71105;BME280;58760;48.716;8.962;2024-03-29T05:36:20;94732.44;;;6.09;100.00
71105;BME280;58760;48.716;8.962;2024-03-29T05:38:46;94733.44;;;6.29;100.00
71105;BME280;58760;48.716;8.962;2024-03-29T05:41:12;94739.31;;;6.31;100.00
71105;BME280;58760;48.716;8.962;2024-03-29T05:43:40;94744.91;;;6.21;100.00
71105;BME280;58760;48.716;8.962;2024-03-29T05:46:06;94743.94;;;6.57;100.00
71105;BME280;58760;48.716;8.962;2024-03-29T05:48:32;94736.53;;;6.39;100.00
71105;BME280;58760;48.716;8.962;2024-03-29T05:50:57;94741.47;;;6.49;100.00
71105;BME280;58760;48.716;8.962;2024-03-29T05:53:23;94748.94;;;6.45;100.00
71105;BME280;58760;48.716;8.962;2024-03-29T05:55:49;94750.19;;;6.49;100.00
71105;BME280;58760;48.716;8.962;2024-03-29T05:58:15;94757.66;;;6.46;100.00
71105;BME280;58760;48.716;8.962;2024-03-29T06:00:43;94748.06;;;6.59;100.00
71105;BME280;58760;48.716;8.962;2024-03-29T06:03:09;94739.19;;;6.73;100.00
71105;BME280;58760;48.716;8.962;2024-03-29T06:05:35;94736.22;;;6.83;100.00
71105;BME280;58760;48.716;8.962;2024-03-29T06:08:01;94737.00;;;6.77;100.00
71105;BME280;58760;48.716;8.962;2024-03-29T06:10:26;94722.28;;;6.89;100.00
71105;BME280;58760;48.716;8.962;2024-03-29T06:12:52;94723.06;;;6.90;100.00
71105;BME280;58760;48.716;8.962;2024-03-29T06:15:19;94735.50;;;6.96;100.00
71105;BME280;58760;48.716;8.962;2024-03-29T06:18:03;94735.31;;;7.04;100.00
71105;BME280;58760;48.716;8.962;2024-03-29T06:20:29;94734.94;;;7.07;100.00
71105;BME280;58760;48.716;8.962;2024-03-29T06:22:55;94747.69;;;7.03;100.00
71105;BME280;58760;48.716;8.962;2024-03-29T06:25:20;94750.78;;;7.13;100.00
71105;BME280;58760;48.716;8.962;2024-03-29T06:27:46;94746.88;;;7.44;100.00
71105;BME280;58760;48.716;8.962;2024-03-29T06:30:15;94748.94;;;7.55;100.00
71105;BME280;58760;48.716;8.962;2024-03-29T06:32:45;94757.13;;;7.73;100.00
71105;BME280;58760;48.716;8.962;2024-03-29T06:35:12;94746.56;;;7.66;100.00
71105;BME280;58760;48.716;8.962;2024-03-29T06:37:38;94745.66;;;7.46;100.00
71105;BME280;58760;48.716;8.962;2024-03-29T06:40:07;94736.47;;;7.35;100.00
71105;BME280;58760;48.716;8.962;2024-03-29T06:42:33;94732.84;;;7.36;100.00
71105;BME280;58760;48.716;8.962;2024-03-29T06:45:02;94732.03;;;7.43;100.00
71105;BME280;58760;48.716;8.962;2024-03-29T06:47:35;94719.47;;;7.51;100.00
71105;BME280;58760;48.716;8.962;2024-03-29T06:50:08;94720.31;;;7.58;100.00
71105;BME280;58760;48.716;8.962;2024-03-29T06:52:42;94705.94;;;7.61;100.00
71105;BME280;58760;48.716;8.962;2024-03-29T06:55:09;94706.34;;;7.77;100.00
71105;BME280;58760;48.716;8.962;2024-03-29T06:57:35;94707.44;;;8.03;100.00
71105;BME280;58760;48.716;8.962;2024-03-29T07:00:01;94702.34;;;8.14;100.00
71105;BME280;58760;48.716;8.962;2024-03-29T07:02:28;94694.41;;;8.21;100.00
71105;BME280;58760;48.716;8.962;2024-03-29T07:04:54;94690.53;;;8.10;100.00
71105;BME280;58760;48.716;8.962;2024-03-29T07:07:19;94696.66;;;8.17;100.00
71105;BME280;58760;48.716;8.962;2024-03-29T07:09:45;94684.84;;;8.07;100.00
71105;BME280;58760;48.716;8.962;2024-03-29T07:12:10;94680.78;;;7.91;100.00
71105;BME280;58760;48.716;8.962;2024-03-29T07:14:36;94692.19;;;7.98;100.00
71105;BME280;58760;48.716;8.962;2024-03-29T07:17:01;94699.91;;;8.06;100.00
71105;BME280;58760;48.716;8.962;2024-03-29T07:19:28;94704.56;;;7.91;100.00
71105;BME280;58760;48.716;8.962;2024-03-29T07:21:53;94717.31;;;7.81;100.00
71105;BME280;58760;48.716;8.962;2024-03-29T07:24:19;94730.97;;;8.04;100.00
71105;BME280;58760;48.716;8.962;2024-03-29T07:26:45;94728.94;;;7.86;100.00
71105;BME280;58760;48.716;8.962;2024-03-29T07:29:11;94728.50;;;7.70;100.00
71105;BME280;58760;48.716;8.962;2024-03-29T07:31:37;94753.84;;;7.71;100.00
71105;BME280;58760;48.716;8.962;2024-03-29T07:34:02;94744.50;;;7.68;100.00
71105;BME280;58760;48.716;8.962;2024-03-29T07:36:28;94744.06;;;7.52;100.00
71105;BME280;58760;48.716;8.962;2024-03-29T07:38:59;94755.34;;;7.32;100.00
71105;BME280;58760;48.716;8.962;2024-03-29T07:41:25;94761.06;;;7.43;100.00
71105;BME280;58760;48.716;8.962;2024-03-29T07:43:55;94765.00;;;7.60;100.00
71105;BME280;58760;48.716;8.962;2024-03-29T07:46:33;94768.91;;;7.77;100.00
71105;BME280;58760;48.716;8.962;2024-03-29T07:48:59;94790.00;;;7.64;100.00
71105;BME280;58760;48.716;8.962;2024-03-29T07:51:25;94826.59;;;7.80;100.00
71105;BME280;58760;48.716;8.962;2024-03-29T07:53:50;94841.19;;;7.76;100.00
71105;BME280;58760;48.716;8.962;2024-03-29T07:56:15;94861.94;;;7.79;100.00
71105;BME280;58760;48.716;8.962;2024-03-29T07:58:42;94882.06;;;7.46;100.00
71105;BME280;58760;48.716;8.962;2024-03-29T08:01:07;94892.59;;;7.46;100.00
71105;BME280;58760;48.716;8.962;2024-03-29T08:03:33;94887.13;;;7.41;100.00
71105;BME280;58760;48.716;8.962;2024-03-29T08:06:03;94886.75;;;7.50;100.00
71105;BME280;58760;48.716;8.962;2024-03-29T08:08:32;94892.47;;;7.54;100.00
71105;BME280;58760;48.716;8.962;2024-03-29T08:10:57;94893.91;;;7.56;100.00
71105;BME280;58760;48.716;8.962;2024-03-29T08:13:24;94893.06;;;7.56;100.00
71105;BME280;58760;48.716;8.962;2024-03-29T08:16:01;94904.56;;;7.76;100.00
71105;BME280;58760;48.716;8.962;2024-03-29T08:18:28;94899.91;;;7.84;100.00
71105;BME280;58760;48.716;8.962;2024-03-29T08:20:54;94901.19;;;7.95;100.00
71105;BME280;58760;48.716;8.962;2024-03-29T08:23:21;94904.84;;;7.94;100.00
71105;BME280;58760;48.716;8.962;2024-03-29T08:25:46;94916.97;;;7.82;100.00
71105;BME280;58760;48.716;8.962;2024-03-29T08:28:13;94924.13;;;7.88;100.00
71105;BME280;58760;48.716;8.962;2024-03-29T08:30:39;94921.03;;;7.84;100.00
71105;BME280;58760;48.716;8.962;2024-03-29T08:33:04;94931.13;;;7.74;100.00
71105;BME280;58760;48.716;8.962;2024-03-29T08:35:33;94934.44;;;7.76;100.00
71105;BME280;58760;48.716;8.962;2024-03-29T08:38:00;94934.88;;;7.86;100.00
71105;BME280;58760;48.716;8.962;2024-03-29T08:40:27;94944.00;;;7.84;100.00
71105;BME280;58760;48.716;8.962;2024-03-29T08:42:57;94945.25;;;7.88;100.00
71105;BME280;58760;48.716;8.962;2024-03-29T08:45:23;94953.66;;;8.05;100.00
71105;BME280;58760;48.716;8.962;2024-03-29T08:47:49;94950.97;;;7.98;100.00
71105;BME280;58760;48.716;8.962;2024-03-29T08:50:14;94961.16;;;8.01;100.00
71105;BME280;58760;48.716;8.962;2024-03-29T08:52:40;94955.13;;;8.20;100.00
71105;BME280;58760;48.716;8.962;2024-03-29T08:55:07;94964.91;;;8.26;100.00
71105;BME280;58760;48.716;8.962;2024-03-29T08:57:32;94956.00;;;8.27;100.00
71105;BME280;58760;48.716;8.962;2024-03-29T08:59:58;94965.63;;;8.42;100.00
71105;BME280;58760;48.716;8.962;2024-03-29T09:02:24;94967.25;;;8.43;100.00
71105;BME280;58760;48.716;8.962;2024-03-29T09:04:49;94959.97;;;8.51;100.00
71105;BME280;58760;48.716;8.962;2024-03-29T09:07:15;94967.09;;;8.57;100.00
71105;BME280;58760;48.716;8.962;2024-03-29T09:09:41;94977.50;;;8.72;100.00
71105;BME280;58760;48.716;8.962;2024-03-29T09:12:08;94986.69;;;8.76;100.00
71105;BME280;58760;48.716;8.962;2024-03-29T09:14:33;94979.19;;;8.86;100.00
71105;BME280;58760;48.716;8.962;2024-03-29T09:16:59;94987.13;;;8.92;100.00
71105;BME280;58760;48.716;8.962;2024-03-29T09:19:25;94980.19;;;8.85;100.00
71105;BME280;58760;48.716;8.962;2024-03-29T09:21:50;94983.28;;;9.08;100.00
71105;BME280;58760;48.716;8.962;2024-03-29T09:24:16;94990.00;;;9.11;100.00
71105;BME280;58760;48.716;8.962;2024-03-29T09:26:43;94977.00;;;9.16;100.00
71105;BME280;58760;48.716;8.962;2024-03-29T09:29:08;94979.00;;;9.14;100.00
71105;BME280;58760;48.716;8.962;2024-03-29T09:31:35;94974.53;;;9.01;100.00
71105;BME280;58760;48.716;8.962;2024-03-29T09:34:01;94966.00;;;9.19;100.00
71105;BME280;58760;48.716;8.962;2024-03-29T09:36:26;94967.81;;;9.12;100.00
71105;BME280;58760;48.716;8.962;2024-03-29T09:38:52;94942.19;;;9.19;100.00
71105;BME280;58760;48.716;8.962;2024-03-29T09:41:18;94919.16;;;9.52;100.00
71105;BME280;58760;48.716;8.962;2024-03-29T09:43:46;94918.13;;;9.60;100.00
71105;BME280;58760;48.716;8.962;2024-03-29T09:46:15;94920.34;;;9.63;100.00
71105;BME280;58760;48.716;8.962;2024-03-29T09:48:42;94919.44;;;10.02;100.00
71105;BME280;58760;48.716;8.962;2024-03-29T09:51:11;94904.13;;;10.10;100.00
71105;BME280;58760;48.716;8.962;2024-03-29T09:53:43;94912.94;;;9.97;100.00
71105;BME280;58760;48.716;8.962;2024-03-29T09:56:09;94900.75;;;9.83;100.00
71105;BME280;58760;48.716;8.962;2024-03-29T09:58:36;94893.84;;;9.76;100.00
71105;BME280;58760;48.716;8.962;2024-03-29T10:01:03;94894.19;;;9.92;100.00
71105;BME280;58760;48.716;8.962;2024-03-29T10:03:30;94868.66;;;10.11;100.00
71105;BME280;58760;48.716;8.962;2024-03-29T10:06:00;94883.28;;;10.33;100.00
71105;BME280;58760;48.716;8.962;2024-03-29T10:08:30;94910.66;;;10.59;100.00
71105;BME280;58760;48.716;8.962;2024-03-29T10:10:59;94899.97;;;10.72;100.00
71105;BME280;58760;48.716;8.962;2024-03-29T10:13:25;94878.81;;;10.90;100.00
71105;BME280;58760;48.716;8.962;2024-03-29T10:15:51;94873.44;;;11.28;100.00
71105;BME280;58760;48.716;8.962;2024-03-29T10:18:19;94831.41;;;11.43;100.00
71105;BME280;58760;48.716;8.962;2024-03-29T10:20:46;94820.94;;;11.48;100.00
71105;BME280;58760;48.716;8.962;2024-03-29T10:23:12;94824.47;;;11.42;100.00
71105;BME280;58760;48.716;8.962;2024-03-29T10:25:37;94847.28;;;11.49;100.00
71105;BME280;58760;48.716;8.962;2024-03-29T10:28:03;94835.16;;;11.78;100.00
71105;BME280;58760;48.716;8.962;2024-03-29T10:30:29;94818.88;;;12.04;100.00
71105;BME280;58760;48.716;8.962;2024-03-29T10:32:56;94829.38;;;11.99;100.00
71105;BME280;58760;48.716;8.962;2024-03-29T10:35:22;94834.25;;;12.62;100.00
71105;BME280;58760;48.716;8.962;2024-03-29T10:37:47;94815.41;;;12.64;100.00
71105;BME280;58760;48.716;8.962;2024-03-29T10:40:13;94808.81;;;13.19;100.00
71105;BME280;58760;48.716;8.962;2024-03-29T10:42:41;94812.06;;;13.21;100.00
71105;BME280;58760;48.716;8.962;2024-03-29T10:45:07;94807.78;;;13.32;100.00
71105;BME280;58760;48.716;8.962;2024-03-29T10:47:33;94813.69;;;13.45;100.00
71105;BME280;58760;48.716;8.962;2024-03-29T10:49:59;94819.56;;;13.71;100.00
71105;BME280;58760;48.716;8.962;2024-03-29T10:52:26;94808.19;;;13.87;100.00
71105;BME280;58760;48.716;8.962;2024-03-29T10:54:52;94816.81;;;14.17;100.00
71105;BME280;58760;48.716;8.962;2024-03-29T10:57:25;94824.88;;;14.22;100.00
71105;BME280;58760;48.716;8.962;2024-03-29T11:00:08;94807.09;;;14.11;100.00
71105;BME280;58760;48.716;8.962;2024-03-29T11:05:30;94798.13;;;14.17;100.00
71105;BME280;58760;48.716;8.962;2024-03-29T11:07:57;94799.34;;;14.38;100.00
71105;BME280;58760;48.716;8.962;2024-03-29T11:10:28;94814.22;;;14.22;100.00
71105;BME280;58760;48.716;8.962;2024-03-29T11:13:17;94822.72;;;14.47;100.00
71105;BME280;58760;48.716;8.962;2024-03-29T11:15:44;94803.69;;;14.55;100.00
71105;BME280;58760;48.716;8.962;2024-03-29T11:18:12;94786.03;;;14.54;100.00
71105;BME280;58760;48.716;8.962;2024-03-29T11:20:38;94789.63;;;14.93;100.00
71105;BME280;58760;48.716;8.962;2024-03-29T11:23:11;94769.50;;;14.86;100.00
71105;BME280;58760;48.716;8.962;2024-03-29T11:25:42;94768.47;;;15.25;100.00
71105;BME280;58760;48.716;8.962;2024-03-29T11:28:11;94752.25;;;15.10;100.00
71105;BME280;58760;48.716;8.962;2024-03-29T11:30:40;94736.97;;;15.44;100.00
71105;BME280;58760;48.716;8.962;2024-03-29T11:33:06;94730.88;;;15.10;100.00
71105;BME280;58760;48.716;8.962;2024-03-29T11:35:32;94720.84;;;15.55;100.00
71105;BME280;58760;48.716;8.962;2024-03-29T11:38:01;94725.19;;;15.61;100.00
71105;BME280;58760;48.716;8.962;2024-03-29T11:40:30;94714.00;;;15.86;100.00
71105;BME280;58760;48.716;8.962;2024-03-29T11:42:56;94721.78;;;15.88;100.00
71105;BME280;58760;48.716;8.962;2024-03-29T11:45:25;94731.91;;;15.86;100.00
71105;BME280;58760;48.716;8.962;2024-03-29T11:47:59;94738.13;;;15.91;100.00
71105;BME280;58760;48.716;8.962;2024-03-29T11:50:26;94744.53;;;15.68;100.00
71105;BME280;58760;48.716;8.962;2024-03-29T11:52:52;94750.56;;;15.42;100.00
71105;BME280;58760;48.716;8.962;2024-03-29T11:55:17;94755.69;;;15.44;100.00
71105;BME280;58760;48.716;8.962;2024-03-29T11:57:43;94754.59;;;15.61;100.00
71105;BME280;58760;48.716;8.962;2024-03-29T12:00:12;94754.19;;;15.69;100.00
71105;BME280;58760;48.716;8.962;2024-03-29T12:02:39;94750.56;;;15.42;100.00
71105;BME280;58760;48.716;8.962;2024-03-29T12:05:06;94744.34;;;15.53;100.00
71105;BME280;58760;48.716;8.962;2024-03-29T12:07:33;94748.34;;;15.34;100.00
71105;BME280;58760;48.716;8.962;2024-03-29T12:09:59;94751.88;;;15.40;100.00
71105;BME280;58760;48.716;8.962;2024-03-29T12:12:24;94752.56;;;15.68;100.00
71105;BME280;58760;48.716;8.962;2024-03-29T12:14:50;94754.38;;;15.85;100.00
71105;BME280;58760;48.716;8.962;2024-03-29T12:17:16;94761.06;;;16.31;100.00
71105;BME280;58760;48.716;8.962;2024-03-29T12:19:41;94746.94;;;16.35;100.00
71105;BME280;58760;48.716;8.962;2024-03-29T12:22:08;94736.63;;;16.22;100.00
71105;BME280;58760;48.716;8.962;2024-03-29T12:24:35;94736.13;;;16.25;100.00
71105;BME280;58760;48.716;8.962;2024-03-29T12:27:01;94744.19;;;16.30;100.00
71105;BME280;58760;48.716;8.962;2024-03-29T12:29:27;94751.19;;;16.36;100.00
71105;BME280;58760;48.716;8.962;2024-03-29T12:31:58;94749.19;;;16.21;100.00
71105;BME280;58760;48.716;8.962;2024-03-29T12:34:24;94750.97;;;16.16;100.00
71105;BME280;58760;48.716;8.962;2024-03-29T12:36:50;94752.13;;;16.47;100.00
71105;BME280;58760;48.716;8.962;2024-03-29T12:39:17;94747.31;;;16.49;100.00
71105;BME280;58760;48.716;8.962;2024-03-29T12:41:42;94734.94;;;17.01;100.00
71105;BME280;58760;48.716;8.962;2024-03-29T12:44:12;94747.75;;;16.94;100.00
71105;BME280;58760;48.716;8.962;2024-03-29T12:46:38;94731.38;;;16.91;100.00
71105;BME280;58760;48.716;8.962;2024-03-29T12:49:04;94750.69;;;16.93;100.00
71105;BME280;58760;48.716;8.962;2024-03-29T12:51:29;94752.75;;;16.81;100.00
71105;BME280;58760;48.716;8.962;2024-03-29T12:53:55;94746.78;;;16.73;100.00
71105;BME280;58760;48.716;8.962;2024-03-29T12:56:26;94752.81;;;16.91;100.00
71105;BME280;58760;48.716;8.962;2024-03-29T12:58:51;94743.28;;;17.05;100.00